createdAt,value
2018-09-25T00:01:46.038Z,2.40
2018-09-25T00:04:20.158Z,1.90
2018-09-25T00:06:54.462Z,2.50
2018-09-25T00:09:28.661Z,1.85
2018-09-25T00:12:02.834Z,2.55
2018-09-25T00:14:37.207Z,1.65
2018-09-25T00:17:11.239Z,1.72
2018-09-25T00:19:45.625Z,1.93
2018-09-25T00:22:19.905Z,2.40
2018-09-25T00:24:54.127Z,2.17
2018-09-25T00:27:28.366Z,1.90
2018-09-25T00:30:02.685Z,2.50
2018-09-25T00:32:36.966Z,1.70
2018-09-25T00:35:11.318Z,1.93
2018-09-25T00:37:45.466Z,2.50
2018-09-25T00:40:19.682Z,2.08
2018-09-25T00:42:53.962Z,2.65
2018-09-25T00:45:28.027Z,1.70
2018-09-25T00:48:02.167Z,2.13
2018-09-25T00:50:36.511Z,2.15
2018-09-25T00:53:10.491Z,2.30
2018-09-25T00:55:44.729Z,2.33
2018-09-25T00:58:18.858Z,2.90
2018-09-25T01:00:53.070Z,2.58
2018-09-25T01:03:27.327Z,2.42
2018-09-25T01:06:01.497Z,2.40
2018-09-25T01:08:35.659Z,2.20
2018-09-25T01:11:09.986Z,2.98
2018-09-25T01:13:44.660Z,2.75
2018-09-25T01:16:18.748Z,2.90
2018-09-25T01:18:52.863Z,2.20
2018-09-25T01:21:27.185Z,2.90
2018-09-25T01:24:01.320Z,2.20
2018-09-25T01:26:35.710Z,3.60
2018-09-25T01:29:10.015Z,2.83
2018-09-25T01:31:44.279Z,2.67
2018-09-25T01:34:18.546Z,2.60
2018-09-25T01:36:52.868Z,2.35
2018-09-25T01:39:26.965Z,2.92
2018-09-25T01:42:00.986Z,2.85
2018-09-25T01:44:35.062Z,2.35
2018-09-25T01:47:09.354Z,3.20
2018-09-25T01:49:43.650Z,2.58
2018-09-25T01:52:17.814Z,3.23
2018-09-25T01:54:52.014Z,3.17
2018-09-25T01:57:26.291Z,3.87
2018-09-25T02:00:00.517Z,3.00
2018-09-25T02:02:34.860Z,3.10
2018-09-25T02:05:08.962Z,2.80
2018-09-25T02:07:43.154Z,3.83
2018-09-25T02:10:17.473Z,3.50
2018-09-25T02:12:51.617Z,3.62
2018-09-25T02:15:25.758Z,4.47
2018-09-25T02:17:59.914Z,3.37
2018-09-25T02:20:34.247Z,4.12
2018-09-25T02:23:08.473Z,4.53
2018-09-25T02:25:42.774Z,3.65
2018-09-25T02:28:16.978Z,3.63
2018-09-25T02:30:51.267Z,3.50
2018-09-25T02:33:25.467Z,2.60
2018-09-25T02:35:59.740Z,2.58
2018-09-25T02:38:34.075Z,3.00
2018-09-25T02:41:08.962Z,3.50
2018-09-25T02:43:43.223Z,2.90
2018-09-25T02:46:17.254Z,2.83
2018-09-25T02:48:51.538Z,2.40
2018-09-25T02:51:25.718Z,2.12
2018-09-25T02:54:00.016Z,2.20
2018-09-25T02:56:34.251Z,2.60
2018-09-25T02:59:08.523Z,2.23
2018-09-25T03:01:42.922Z,2.90
2018-09-25T03:04:17.070Z,2.90
2018-09-25T03:06:51.366Z,2.33
2018-09-25T03:09:25.509Z,2.55
2018-09-25T03:12:00.151Z,2.15
2018-09-25T03:14:34.347Z,2.75
2018-09-25T03:17:08.585Z,2.17
2018-09-25T03:19:42.919Z,3.00
2018-09-25T03:22:17.079Z,2.42
2018-09-25T03:24:51.411Z,3.00
2018-09-25T03:27:25.622Z,2.52
2018-09-25T03:29:59.941Z,2.72
2018-09-25T03:32:34.287Z,3.10
2018-09-25T03:35:08.520Z,3.73
2018-09-25T03:37:42.659Z,3.72
2018-09-25T03:40:17.040Z,3.42
2018-09-25T03:42:51.362Z,2.20
2018-09-25T03:45:25.592Z,3.12
2018-09-25T03:47:59.881Z,3.35
2018-09-25T03:50:34.202Z,3.30
2018-09-25T03:53:08.532Z,3.92
2018-09-25T03:55:42.666Z,3.35
2018-09-25T03:58:16.903Z,2.37
2018-09-25T04:00:51.259Z,2.98
2018-09-25T04:03:25.549Z,3.35
2018-09-25T04:05:59.815Z,2.85
2018-09-25T04:08:34.060Z,2.30
2018-09-25T04:11:08.219Z,2.55
2018-09-25T04:13:42.538Z,2.17
2018-09-25T04:16:16.578Z,2.17
2018-09-25T04:18:50.893Z,2.62
2018-09-25T04:21:25.222Z,2.40
2018-09-25T04:23:59.396Z,2.47
2018-09-25T04:26:33.546Z,2.13
2018-09-25T04:29:07.766Z,2.10
2018-09-25T04:31:42.144Z,1.65
2018-09-25T04:34:16.242Z,1.82
2018-09-25T04:36:50.342Z,3.20
2018-09-25T04:39:24.603Z,3.10
2018-09-25T04:41:58.912Z,2.30
2018-09-25T04:44:32.842Z,2.43
2018-09-25T04:47:07.105Z,2.30
2018-09-25T04:49:41.214Z,2.65
2018-09-25T04:52:15.537Z,3.20
2018-09-25T04:54:49.789Z,3.33
2018-09-25T04:57:24.090Z,2.90
2018-09-25T04:59:58.414Z,2.60
2018-09-25T05:02:32.757Z,2.70
2018-09-25T05:05:06.909Z,2.42
2018-09-25T05:07:41.262Z,3.10
2018-09-25T05:10:15.408Z,3.02
2018-09-25T05:12:49.665Z,2.60
2018-09-25T05:15:24.031Z,2.37
2018-09-25T05:17:58.398Z,2.63
2018-09-25T05:20:32.450Z,2.83
2018-09-25T05:23:06.799Z,3.00
2018-09-25T05:25:41.106Z,2.65
2018-09-25T05:28:15.426Z,2.52
2018-09-25T05:30:49.709Z,2.60
2018-09-25T05:33:23.878Z,3.20
2018-09-25T05:35:58.106Z,2.55
2018-09-25T05:38:32.452Z,2.12
2018-09-25T05:41:06.800Z,3.15
2018-09-25T05:43:40.899Z,2.98
2018-09-25T05:46:15.070Z,2.42
2018-09-25T05:48:49.153Z,2.15
2018-09-25T05:51:23.246Z,2.42
2018-09-25T05:53:57.548Z,2.15
2018-09-25T05:56:31.829Z,3.30
2018-09-25T05:59:06.170Z,4.15
2018-09-25T06:01:40.357Z,3.10
2018-09-25T06:04:14.619Z,2.42
2018-09-25T06:06:48.940Z,2.40
2018-09-25T06:09:23.047Z,2.90
2018-09-25T06:12:03.974Z,3.27
2018-09-25T06:14:38.298Z,2.98
2018-09-25T06:17:12.564Z,3.60
2018-09-25T06:19:46.781Z,2.95
2018-09-25T06:22:20.995Z,3.02
2018-09-25T06:24:55.209Z,4.08
2018-09-25T06:27:29.510Z,2.67
2018-09-25T06:30:03.750Z,2.92
2018-09-25T06:32:37.916Z,3.20
2018-09-25T06:35:12.114Z,3.12
2018-09-25T06:37:46.433Z,2.77
2018-09-25T06:40:20.769Z,4.03
2018-09-25T06:42:54.968Z,3.83
2018-09-25T06:45:29.167Z,3.10
2018-09-25T06:48:03.376Z,3.00
2018-09-25T06:50:37.532Z,3.47
2018-09-25T06:53:11.724Z,3.30
2018-09-25T06:55:46.058Z,2.75
2018-09-25T06:58:20.032Z,4.10
2018-09-25T07:00:54.351Z,3.70
2018-09-25T07:03:28.647Z,2.98
2018-09-25T07:06:02.979Z,3.85
2018-09-25T07:08:37.162Z,3.47
2018-09-25T07:11:11.519Z,3.33
2018-09-25T07:13:45.738Z,3.10
2018-09-25T07:16:19.836Z,3.62
2018-09-25T07:18:54.130Z,4.40
2018-09-25T07:21:28.426Z,4.12
2018-09-25T07:24:03.282Z,3.20
2018-09-25T07:26:37.590Z,3.58
2018-09-25T07:29:11.813Z,3.80
2018-09-25T07:31:46.210Z,3.47
2018-09-25T07:34:20.375Z,4.45
2018-09-25T07:36:54.583Z,4.37
2018-09-25T07:39:28.869Z,4.25
2018-09-25T07:42:03.111Z,4.05
2018-09-25T07:44:37.490Z,4.03
2018-09-25T07:47:11.578Z,3.30
2018-09-25T07:49:45.560Z,4.08
2018-09-25T07:52:19.833Z,4.00
2018-09-25T07:54:54.182Z,4.20
2018-09-25T07:57:28.454Z,3.20
2018-09-25T08:00:03.036Z,4.30
2018-09-25T08:02:37.185Z,4.10
2018-09-25T08:05:11.234Z,3.65
2018-09-25T08:07:45.532Z,3.62
2018-09-25T08:10:19.766Z,4.08
2018-09-25T08:12:54.046Z,3.27
2018-09-25T08:15:28.385Z,3.00
2018-09-25T08:18:02.563Z,3.33
2018-09-25T08:20:36.838Z,3.22
2018-09-25T08:23:11.103Z,3.12
2018-09-25T08:25:45.309Z,3.35
2018-09-25T08:28:19.388Z,3.70
2018-09-25T08:30:53.736Z,3.10
2018-09-25T08:33:27.802Z,3.00
2018-09-25T08:36:02.026Z,2.70
2018-09-25T08:41:31.615Z,2.50
2018-09-25T08:44:06.031Z,2.92
2018-09-25T08:46:40.329Z,1.72
2018-09-25T08:49:14.502Z,1.95
2018-09-25T08:51:48.747Z,1.65
2018-09-25T08:54:23.064Z,1.10
2018-09-25T08:56:57.318Z,1.80
2018-09-25T08:59:31.648Z,1.67
2018-09-25T09:02:05.679Z,1.50
2018-09-25T09:04:39.735Z,1.57
2018-09-25T09:07:14.070Z,1.42
2018-09-25T09:09:48.317Z,1.30
2018-09-25T09:12:22.457Z,1.32
2018-09-25T09:14:56.714Z,1.95
2018-09-25T09:17:31.034Z,1.07
2018-09-25T09:20:05.807Z,1.20
2018-09-25T09:22:40.105Z,1.52
2018-09-25T09:25:14.295Z,1.00
2018-09-25T09:27:48.358Z,1.05
2018-09-25T09:30:22.547Z,1.42
2018-09-25T09:32:56.772Z,1.27
2018-09-25T09:35:30.828Z,1.35
2018-09-25T09:38:05.110Z,1.00
2018-09-25T09:40:39.303Z,1.37
2018-09-25T09:43:13.478Z,1.20
2018-09-25T09:45:47.779Z,1.00
2018-09-25T09:48:22.014Z,1.02
2018-09-25T09:50:56.234Z,1.20
2018-09-25T09:53:30.401Z,0.70
2018-09-25T09:56:04.795Z,1.20
2018-09-25T09:58:39.030Z,0.98
2018-09-25T10:01:13.025Z,1.17
2018-09-25T10:03:47.277Z,1.12
2018-09-25T10:06:21.338Z,1.03
2018-09-25T10:08:55.666Z,0.80
2018-09-25T10:11:30.042Z,0.88
2018-09-25T10:14:04.282Z,1.00
2018-09-25T10:16:38.541Z,0.70
2018-09-25T10:19:12.862Z,1.25
2018-09-25T10:21:46.997Z,1.35
2018-09-25T10:24:21.252Z,1.00
2018-09-25T10:26:55.944Z,0.93
2018-09-25T10:29:30.123Z,1.02
2018-09-25T10:32:04.918Z,1.00
2018-09-25T10:34:39.001Z,0.80
2018-09-25T10:37:13.222Z,1.10
2018-09-25T10:39:47.531Z,1.42
2018-09-25T10:42:21.829Z,1.05
2018-09-25T10:44:55.947Z,1.22
2018-09-25T10:47:30.039Z,0.80
2018-09-25T10:50:04.415Z,0.90
2018-09-25T10:52:38.447Z,1.80
2018-09-25T10:55:12.785Z,0.95
2018-09-25T10:57:47.114Z,1.00
2018-09-25T11:00:21.328Z,1.10
2018-09-25T11:02:55.725Z,1.00
2018-09-25T11:05:29.971Z,1.10
2018-09-25T11:08:04.284Z,1.10
2018-09-25T11:10:38.397Z,0.80
2018-09-25T11:13:12.618Z,0.80
2018-09-25T11:15:46.897Z,1.07
2018-09-25T11:18:21.214Z,0.93
2018-09-25T11:20:55.366Z,0.82
2018-09-25T11:23:29.518Z,0.80
2018-09-25T11:26:03.487Z,1.00
2018-09-25T11:28:37.831Z,0.93
2018-09-25T11:31:12.022Z,1.07
2018-09-25T11:33:46.307Z,1.07
2018-09-25T11:36:20.666Z,1.22
2018-09-25T11:38:54.998Z,0.78
2018-09-25T11:41:29.300Z,1.07
2018-09-25T11:44:03.417Z,1.02
2018-09-25T11:46:37.485Z,0.90
2018-09-25T11:49:11.590Z,1.27
2018-09-25T11:51:45.771Z,1.45
2018-09-25T11:54:20.027Z,1.67
2018-09-25T11:56:54.111Z,1.20
2018-09-25T11:59:28.235Z,1.50
2018-09-25T12:02:02.551Z,1.12
2018-09-25T12:04:36.592Z,1.40
2018-09-25T12:07:10.811Z,1.15
2018-09-25T12:09:45.030Z,1.30
2018-09-25T12:12:19.351Z,1.35
2018-09-25T12:14:54.114Z,0.80
2018-09-25T12:17:28.333Z,0.95
2018-09-25T12:20:02.410Z,1.32
2018-09-25T12:22:36.366Z,1.05
2018-09-25T12:25:10.759Z,1.15
2018-09-25T12:27:44.908Z,1.27
2018-09-25T12:30:19.214Z,0.90
2018-09-25T12:32:53.344Z,0.90
2018-09-25T12:35:27.489Z,1.32
2018-09-25T12:38:01.671Z,0.93
2018-09-25T12:40:35.978Z,1.00
2018-09-25T12:43:10.174Z,0.98
2018-09-25T12:45:44.373Z,0.93
2018-09-25T12:48:18.415Z,0.78
2018-09-25T12:50:52.557Z,1.65
2018-09-25T12:53:26.799Z,1.00
2018-09-25T12:56:01.113Z,0.78
2018-09-25T12:58:35.275Z,0.90
2018-09-25T13:01:09.532Z,0.78
2018-09-25T13:03:43.756Z,1.00
2018-09-25T13:06:17.997Z,1.77
2018-09-25T13:08:52.306Z,1.20
2018-09-25T13:11:26.418Z,0.93
2018-09-25T13:14:00.446Z,1.07
2018-09-25T13:16:34.783Z,0.80
2018-09-25T13:19:09.103Z,1.17
2018-09-25T13:21:43.411Z,1.05
2018-09-25T13:24:17.557Z,1.20
2018-09-25T13:26:51.886Z,1.40
2018-09-25T13:29:25.946Z,1.37
2018-09-25T13:31:59.962Z,1.02
2018-09-25T13:34:34.027Z,1.20
2018-09-25T13:37:08.396Z,1.20
2018-09-25T13:39:43.204Z,1.27
2018-09-25T13:42:17.624Z,1.30
2018-09-25T13:44:51.875Z,1.22
2018-09-25T13:47:25.807Z,1.57
2018-09-25T13:50:00.158Z,1.20
2018-09-25T13:52:34.303Z,1.65
2018-09-25T13:55:08.573Z,1.65
2018-09-25T13:57:42.735Z,1.15
2018-09-25T14:00:16.983Z,1.10
2018-09-25T14:02:51.301Z,1.02
2018-09-25T14:05:25.311Z,1.22
2018-09-25T14:07:59.377Z,1.50
2018-09-25T14:10:33.666Z,1.17
2018-09-25T14:13:07.865Z,1.07
2018-09-25T14:15:42.171Z,1.23
2018-09-25T14:18:16.302Z,1.37
2018-09-25T14:20:50.564Z,1.20
2018-09-25T14:23:24.707Z,1.17
2018-09-25T14:25:58.901Z,1.02
2018-09-25T14:28:33.024Z,2.15
2018-09-25T14:31:07.106Z,1.15
2018-09-25T14:33:41.327Z,1.40
2018-09-25T14:36:15.522Z,1.30
2018-09-25T14:38:49.730Z,1.10
2018-09-25T14:41:23.966Z,1.52
2018-09-25T14:43:58.278Z,1.20
2018-09-25T14:46:32.401Z,1.32
2018-09-25T14:49:06.569Z,1.32
2018-09-25T14:51:40.817Z,1.20
2018-09-25T14:54:14.954Z,1.10
2018-09-25T14:56:49.091Z,1.30
2018-09-25T14:59:23.413Z,1.17
2018-09-25T15:01:57.759Z,1.20
2018-09-25T15:04:31.910Z,1.40
2018-09-25T15:07:06.110Z,1.30
2018-09-25T15:09:40.298Z,1.12
2018-09-25T15:12:14.603Z,1.70
2018-09-25T15:14:48.650Z,1.30
2018-09-25T15:17:22.917Z,1.27
2018-09-25T15:19:57.163Z,0.98
2018-09-25T15:22:31.322Z,0.90
2018-09-25T15:25:05.598Z,1.20
2018-09-25T15:27:40.085Z,0.80
2018-09-25T15:30:15.169Z,0.78
2018-09-25T15:32:49.453Z,1.10
2018-09-25T15:35:23.865Z,1.20
2018-09-25T15:37:57.879Z,0.98
2018-09-25T15:40:32.209Z,0.90
2018-09-25T15:43:06.358Z,1.05
2018-09-25T15:45:40.881Z,1.02
2018-09-25T15:48:15.047Z,1.10
2018-09-25T15:50:49.364Z,1.40
2018-09-25T15:53:23.478Z,1.20
2018-09-25T15:55:57.762Z,1.05
2018-09-25T15:58:32.122Z,1.40
2018-09-25T16:01:06.422Z,1.30
2018-09-25T16:03:40.748Z,1.05
2018-09-25T16:06:14.998Z,1.40
2018-09-25T16:08:49.274Z,0.93
2018-09-25T16:11:24.137Z,1.20
2018-09-25T16:13:58.369Z,1.12
2018-09-25T16:16:32.519Z,0.80
2018-09-25T16:19:06.673Z,1.12
2018-09-25T16:21:40.858Z,1.17
2018-09-25T16:24:15.060Z,1.53
2018-09-25T16:26:49.283Z,1.25
2018-09-25T16:29:23.594Z,1.70
2018-09-25T16:31:58.553Z,2.10
2018-09-25T16:34:32.918Z,1.20
2018-09-25T16:37:07.317Z,1.20
2018-09-25T16:39:42.179Z,1.12
2018-09-25T16:42:16.541Z,1.27
2018-09-25T16:44:51.070Z,1.25
2018-09-25T16:47:25.575Z,1.15
2018-09-25T16:49:59.929Z,1.15
2018-09-25T16:52:34.059Z,1.22
2018-09-25T16:55:08.058Z,1.40
2018-09-25T16:57:42.512Z,1.50
2018-09-25T17:00:16.662Z,1.50
2018-09-25T17:02:50.699Z,1.40
2018-09-25T17:05:25.078Z,2.08
2018-09-25T17:07:59.166Z,1.40
2018-09-25T17:10:33.494Z,1.20
2018-09-25T17:13:07.769Z,1.62
2018-09-25T17:15:42.031Z,1.27
2018-09-25T17:18:16.672Z,1.57
2018-09-25T17:20:50.708Z,2.02
2018-09-25T17:23:24.844Z,1.30
2018-09-25T17:25:59.105Z,1.50
2018-09-25T17:28:33.313Z,2.10
2018-09-25T17:31:07.587Z,1.07
2018-09-25T17:33:41.815Z,1.70
2018-09-25T17:36:16.044Z,1.67
2018-09-25T17:38:50.362Z,1.80
2018-09-25T17:41:24.570Z,1.62
2018-09-25T17:43:58.655Z,1.90
2018-09-25T17:46:32.779Z,2.72
2018-09-25T17:49:07.129Z,2.75
2018-09-25T17:51:41.251Z,2.90
2018-09-25T17:54:15.423Z,2.90
2018-09-25T17:56:49.908Z,3.37
2018-09-25T17:59:24.090Z,3.15
2018-09-25T18:01:58.423Z,3.35
2018-09-25T18:04:32.705Z,3.17
2018-09-25T18:07:06.862Z,2.20
2018-09-25T18:09:41.123Z,2.25
2018-09-25T18:12:15.387Z,2.35
2018-09-25T18:14:49.711Z,3.20
2018-09-25T18:17:23.714Z,2.40
2018-09-25T18:19:57.865Z,3.20
2018-09-25T18:22:31.893Z,2.42
2018-09-25T18:25:06.190Z,2.05
2018-09-25T18:27:40.309Z,1.77
2018-09-25T18:30:14.617Z,2.05
2018-09-25T18:32:48.802Z,2.00
2018-09-25T18:35:22.988Z,1.57
2018-09-25T18:37:57.164Z,2.15
2018-09-25T18:40:31.468Z,2.25
2018-09-25T18:43:05.619Z,2.30
2018-09-25T18:45:40.658Z,1.83
2018-09-25T18:48:14.846Z,1.60
2018-09-25T18:50:48.924Z,2.30
2018-09-25T18:53:23.163Z,2.00
2018-09-25T18:55:58.190Z,1.77
2018-09-25T18:58:32.555Z,1.50
2018-09-25T19:01:06.726Z,1.70
2018-09-25T19:03:41.095Z,1.83
2018-09-25T19:06:15.276Z,1.70
2018-09-25T19:08:49.626Z,2.20
2018-09-25T19:11:23.894Z,1.42
2018-09-25T19:13:58.126Z,2.20
2018-09-25T19:16:32.301Z,1.93
2018-09-25T19:19:06.598Z,1.77
2018-09-25T19:21:40.916Z,1.47
2018-09-25T19:24:15.178Z,1.32
2018-09-25T19:26:49.494Z,1.70
2018-09-25T19:29:23.563Z,2.23
2018-09-25T19:31:57.851Z,1.90
2018-09-25T19:34:32.178Z,1.77
2018-09-25T19:37:06.346Z,2.45
2018-09-25T19:39:41.195Z,2.52
2018-09-25T19:42:15.532Z,2.58
2018-09-25T19:44:49.887Z,2.92
2018-09-25T19:47:24.046Z,2.80
2018-09-25T19:49:58.238Z,3.72
2018-09-25T19:52:32.535Z,3.73
2018-09-25T19:55:06.709Z,4.15
2018-09-25T19:57:40.933Z,3.47
2018-09-25T20:00:15.104Z,3.58
2018-09-25T20:02:49.470Z,3.30
2018-09-25T20:05:23.531Z,2.90
2018-09-25T20:07:57.784Z,2.60
2018-09-25T20:10:32.036Z,2.60
2018-09-25T20:13:06.383Z,2.67
2018-09-25T20:15:40.551Z,2.85
2018-09-25T20:18:14.816Z,2.63
2018-09-25T20:20:48.920Z,2.20
2018-09-25T20:23:23.095Z,2.30
2018-09-25T20:25:57.354Z,2.83
2018-09-25T20:28:31.652Z,2.70
2018-09-25T20:31:05.927Z,3.20
2018-09-25T20:33:40.117Z,2.42
2018-09-25T20:36:14.450Z,2.50
2018-09-25T20:38:48.771Z,2.47
2018-09-25T20:41:23.066Z,2.22
2018-09-25T20:43:57.268Z,3.62
2018-09-25T20:46:31.514Z,2.95
2018-09-25T20:49:05.613Z,2.87
2018-09-25T20:51:39.729Z,2.90
2018-09-25T20:54:14.068Z,2.62
2018-09-25T20:56:48.271Z,2.85
2018-09-25T20:59:22.442Z,2.67
2018-09-25T21:01:57.098Z,2.62
2018-09-25T21:04:32.222Z,2.60
2018-09-25T21:07:07.395Z,2.70
2018-09-25T21:09:41.632Z,2.90
2018-09-25T21:12:15.632Z,3.00
2018-09-25T21:14:49.680Z,3.27
2018-09-25T21:17:23.846Z,2.90
2018-09-25T21:19:58.011Z,2.98
2018-09-25T21:22:32.238Z,2.65
2018-09-25T21:25:06.598Z,3.17
2018-09-25T21:27:40.759Z,3.42
2018-09-25T21:30:15.020Z,3.58
2018-09-25T21:32:49.342Z,3.47
2018-09-25T21:35:23.671Z,3.20
2018-09-25T21:37:57.867Z,3.05
2018-09-25T21:40:32.015Z,3.15
2018-09-25T21:43:06.209Z,3.45
2018-09-25T21:45:40.396Z,3.55
2018-09-25T21:48:14.535Z,3.20
2018-09-25T21:50:48.786Z,3.52
2018-09-25T21:53:23.070Z,3.37
2018-09-25T21:55:57.261Z,3.20
2018-09-25T21:58:31.568Z,4.05
2018-09-25T22:01:05.634Z,3.83
2018-09-25T22:03:39.901Z,3.90
2018-09-25T22:06:14.173Z,3.95
2018-09-25T22:08:48.353Z,3.90
2018-09-25T22:11:22.666Z,4.17
2018-09-25T22:13:56.847Z,4.10
2018-09-25T22:16:30.983Z,4.10
2018-09-25T22:19:05.339Z,3.30
2018-09-25T22:21:39.651Z,3.80
2018-09-25T22:24:13.857Z,3.98
2018-09-25T22:26:48.120Z,4.05
2018-09-25T22:29:22.469Z,5.42
2018-09-25T22:31:56.678Z,4.78
2018-09-25T22:34:31.437Z,4.25
2018-09-25T22:37:05.587Z,4.20
2018-09-25T22:39:39.828Z,3.98
2018-09-25T22:42:13.989Z,4.30
2018-09-25T22:44:48.198Z,4.30
2018-09-25T22:47:22.270Z,4.77
2018-09-25T22:49:56.467Z,4.50
2018-09-25T22:52:30.634Z,5.22
2018-09-25T22:55:04.917Z,4.25
2018-09-25T22:57:39.096Z,4.15
2018-09-25T23:00:13.338Z,4.67
2018-09-25T23:02:47.629Z,4.65
2018-09-25T23:05:21.873Z,5.08
2018-09-25T23:07:56.088Z,4.43
2018-09-25T23:10:30.443Z,5.50
2018-09-25T23:13:04.751Z,5.87
2018-09-25T23:15:38.894Z,4.30
2018-09-25T23:18:13.177Z,4.80
2018-09-25T23:20:47.345Z,4.58
2018-09-25T23:23:22.330Z,5.47
2018-09-25T23:25:56.520Z,4.65
2018-09-25T23:28:30.674Z,4.85
2018-09-25T23:31:04.781Z,4.42
2018-09-25T23:33:38.947Z,5.00
2018-09-25T23:36:13.191Z,5.10
2018-09-25T23:38:47.209Z,4.95
2018-09-25T23:41:21.250Z,5.03
2018-09-25T23:45:59.545Z,5.08
2018-09-25T23:48:33.866Z,4.05
2018-09-25T23:51:08.790Z,5.05
2018-09-25T23:53:43.148Z,4.87
2018-09-25T23:56:26.054Z,4.72
2018-09-25T23:59:02.027Z,5.05
